HRHO2: North Canadian River

                                SHEF ID:       HRHO2     North Canadian River near Harrah
STATION TYPE:
Regulating: Stage = 15.00, Flow = 8563

STAGE RIV-FLOW WTR-TEMP DIS-OXY PH CONDUCT BAT-LOAD
ft cfs F mg/l su umho/cm volt
Ccp-Rev Ccp-Rev Ccp-Rev Ccp-Rev Ccp-Rev Ccp-Rev Ccp-Rev
(America/Chicago)
04/25 00:00 3.33 140 69.80 7.50 7.74 837 12.06
04/25 01:00 3.34 142 69.26 7.40 7.71 838 12.07
04/25 02:00 3.34 142 68.77 7.42 7.69 840 12.06
04/25 03:00 3.35 144 68.47 7.30 7.68 841 12.04
04/25 04:00 3.35 144 68.18 7.34 7.67 842 12.04
04/25 05:00 3.35 144 67.80 7.31 7.67 843 12.03
04/25 06:00 3.35 144 67.50 7.39 7.66 843 12.01
04/25 07:00 3.35 144 67.15 7.41 7.66 843 12.01
04/25 08:00 3.35 144 67.12 7.69 7.68 843 12.01
04/25 09:00 3.36 146 67.37 7.98 7.71 843 12.07
04/25 10:00 3.36 146 67.82 8.41 7.76 842 12.46
04/25 11:00 3.36 146 68.68 8.70 7.80 842 12.70
04/25 12:00 3.36 146 69.48 8.95 7.85 842 13.07
04/25 13:00 3.36 146 69.80 9.03 7.87 842 13.24
04/25 14:00 3.36 146 70.02 9.15 7.90 840 13.09
04/25 15:00 3.36 146 70.41 9.27 7.94 840 13.00
04/25 16:00 3.36 146 70.56 9.29 7.95 839 13.14
04/25 17:00 3.36 146 70.48 9.02 7.93 839 12.93
04/25 18:00 3.36 146 70.50 8.89 7.92 839 12.73
04/25 19:00 3.36 146 70.39 8.53 7.89 840 12.65
04/25 20:00 3.37 148 70.25 8.24 7.85 841 12.42
04/25 21:00 3.37 148 70.12 7.92 7.80 841 12.24
04/25 22:00 3.38 150 70.03 7.75 7.77 841 12.10
04/25 23:00 3.38 150 70.02 7.66 7.76 842 12.02
Data processed at Sun 26Apr2026 04:25 GMT

NOTICE: If you are parsing this page

Please convert to using our Data API. Starting early 2026 we will be migrating to: https://water.usace.army.mil with modern pages rendered in JavaScript. When this migration completes you will no longer be able to scrape this page! CWMSDataAPI (CDA)

Timeseries IDs (TSIDs)

TSIDs used from left to right in the data table
HARR.Stage.Inst.1Hour.0.Ccp-Rev
HARR.Flow.Inst.1Hour.0.Ccp-Rev
HARR.Temp-Water.Inst.1Hour.0.Ccp-Rev
HARR.Conc-DO.Inst.1Hour.0.Ccp-Rev
HARR.pH.Inst.1Hour.0.Ccp-Rev
HARR.Cond-Water.Inst.1Hour.0.Ccp-Rev
HARR.Volt-Battery Load.Inst.1Hour.0.Ccp-Rev

                            

All information presented herein is the property of the government of the United States of America and may be revised or deleted at any time without prior notice. Dissemination of this information without the expressed written consent of the Public Affairs Office, Tulsa District U.S. Army Corps of Engineers is strictly prohibited. These data are gathered electronically and, as presented, have NOT undergone any form of quality control. These data are NOT guaranteed to be valid or correct.